Altamont, South Dakota
Current Conditions -  °F | °C
As of 3:54 AM on Saturday 01 Nov 2014 (Local Time) from KCNB Reporting Station
Clear Clear  
Wind Chill: 16°   Ceiling: Unl
Heat Index: 25°   Visibility: 10mi
Dew Point: 19°   Wind: 8mph
Humidity: 79%   Direction: 140°SE
Pressure: 30.36"   Gusts: NA
Location:  44.7895°N, 96.7201°W
Report Text: KCNB 010854Z AUTO 14007KT 10SM CLR M04/M07 A3036 RMK AO2 T10391071
Loading
Personal Weather Stations






























Interactive Weather Map
Tropical Storm Tracking
New forecast layout! Learn more

10-Day Weather Forecast

Advertisements
Track Severe Weather on mobile